createdAt,value
2019-05-15T00:00:51.847Z,35.88
2019-05-15T00:03:23.441Z,38.13
2019-05-15T00:05:54.942Z,34.83
2019-05-15T00:08:30.022Z,39.18
2019-05-15T00:11:01.626Z,37.75
2019-05-15T00:13:34.501Z,38.88
2019-05-15T00:16:08.455Z,41.02
2019-05-15T00:18:43.740Z,37.25
2019-05-15T00:21:15.248Z,38.53
2019-05-15T00:23:49.264Z,41.90
2019-05-15T00:26:20.991Z,35.33
2019-05-15T00:28:52.616Z,37.58
2019-05-15T00:31:24.309Z,41.42
2019-05-15T00:34:00.009Z,39.00
2019-05-15T00:36:32.899Z,39.30
2019-05-15T00:39:08.264Z,35.78
2019-05-15T00:44:12.610Z,35.50
2019-05-15T00:46:45.278Z,38.42
2019-05-15T00:49:18.856Z,36.33
2019-05-15T00:51:51.219Z,40.38
2019-05-15T00:54:22.775Z,38.42
2019-05-15T00:56:54.390Z,38.90
2019-05-15T00:59:30.074Z,33.50
2019-05-15T01:02:00.200Z,35.35
2019-05-15T01:04:31.748Z,38.83
2019-05-15T01:07:03.341Z,35.35
2019-05-15T01:09:34.881Z,34.23
2019-05-15T01:12:08.890Z,36.05
2019-05-15T01:14:40.496Z,41.85
2019-05-15T01:17:13.115Z,33.67
2019-05-15T01:19:44.821Z,34.63
2019-05-15T01:22:16.376Z,38.83
2019-05-15T01:24:48.554Z,37.05
2019-05-15T01:27:20.503Z,34.18
2019-05-15T01:29:52.020Z,29.07
2019-05-15T01:32:24.552Z,31.45
2019-05-15T01:34:58.088Z,27.55
2019-05-15T01:37:29.786Z,27.85
2019-05-15T01:40:01.363Z,28.15
2019-05-15T01:42:32.886Z,28.40
2019-05-15T01:45:05.766Z,27.50
2019-05-15T01:47:39.031Z,27.77
2019-05-15T01:50:12.128Z,29.25
2019-05-15T01:52:43.729Z,31.50
2019-05-15T01:55:15.376Z,27.48
2019-05-15T01:57:48.701Z,30.05
2019-05-15T02:00:20.774Z,28.35
2019-05-15T02:02:52.384Z,29.65
2019-05-15T02:05:23.943Z,26.37
2019-05-15T02:07:55.510Z,30.00
2019-05-15T02:10:29.210Z,29.35
2019-05-15T02:13:00.339Z,30.37
2019-05-15T02:15:31.975Z,29.60
2019-05-15T02:18:03.522Z,33.42
2019-05-15T02:20:35.181Z,31.05
2019-05-15T02:23:11.413Z,33.35
2019-05-15T02:25:40.070Z,29.65
2019-05-15T02:28:13.614Z,39.67
2019-05-15T02:30:45.224Z,35.55
2019-05-15T02:33:18.852Z,33.35
2019-05-15T02:35:50.580Z,40.35
2019-05-15T02:38:23.909Z,38.85
2019-05-15T02:40:59.015Z,34.55
2019-05-15T02:43:29.847Z,32.03
2019-05-15T02:46:02.698Z,37.05
2019-05-15T02:48:34.303Z,38.10
2019-05-15T02:51:05.841Z,30.48
2019-05-15T02:53:39.678Z,32.70
2019-05-15T02:56:11.469Z,32.88
2019-05-15T02:58:43.983Z,31.15
2019-05-15T03:01:18.739Z,32.90
2019-05-15T03:03:50.074Z,34.50
2019-05-15T03:06:22.947Z,35.08
2019-05-15T03:08:55.504Z,29.72
2019-05-15T03:11:29.484Z,37.67
2019-05-15T03:14:01.635Z,31.37
2019-05-15T03:16:34.192Z,35.40
2019-05-15T03:19:05.722Z,33.05
2019-05-15T03:21:38.889Z,31.80
2019-05-15T03:24:12.125Z,31.75
2019-05-15T03:26:43.627Z,29.65
2019-05-15T03:29:16.122Z,34.23
2019-05-15T03:32:05.152Z,39.40
2019-05-15T03:34:28.431Z,38.28
2019-05-15T03:36:54.220Z,43.60
2019-05-15T03:39:25.766Z,38.25
2019-05-15T03:42:01.512Z,38.80
2019-05-15T03:44:33.081Z,38.63
2019-05-15T03:47:04.857Z,46.37
2019-05-15T03:49:39.720Z,46.42
2019-05-15T03:52:13.668Z,43.05
2019-05-15T03:54:45.224Z,45.75
2019-05-15T03:57:20.098Z,49.77
2019-05-15T03:59:50.063Z,47.90
2019-05-15T04:02:21.666Z,50.30
2019-05-15T04:04:56.988Z,49.53
2019-05-15T04:07:29.146Z,43.68
2019-05-15T04:10:00.847Z,42.75
2019-05-15T04:12:32.568Z,42.08
2019-05-15T04:15:05.392Z,39.40
2019-05-15T04:17:39.807Z,41.33
2019-05-15T04:20:10.884Z,40.25
2019-05-15T04:22:42.580Z,54.67
2019-05-15T04:25:15.279Z,45.23
2019-05-15T04:27:49.280Z,57.65
2019-05-15T04:30:22.023Z,53.98
2019-05-15T04:32:53.608Z,47.38
2019-05-15T04:35:25.150Z,43.60
2019-05-15T04:37:59.428Z,44.53
2019-05-15T04:40:30.111Z,41.75
2019-05-15T04:43:01.661Z,38.55
2019-05-15T04:45:35.110Z,39.95
2019-05-15T04:48:09.825Z,34.03
2019-05-15T04:50:40.410Z,33.93
2019-05-15T04:53:13.221Z,26.07
2019-05-15T04:55:49.081Z,34.83
2019-05-15T04:58:21.364Z,29.87
2019-05-15T05:00:54.536Z,26.23
2019-05-15T05:03:28.810Z,27.98
2019-05-15T05:05:59.559Z,25.97
2019-05-15T05:08:31.131Z,30.32
2019-05-15T05:11:02.665Z,34.65
2019-05-15T05:13:34.187Z,31.60
2019-05-15T05:16:05.746Z,34.03
2019-05-15T05:18:40.897Z,42.10
2019-05-15T05:21:10.454Z,40.20
2019-05-15T05:23:43.242Z,41.45
2019-05-15T05:26:14.804Z,42.88
2019-05-15T05:28:48.435Z,44.42
2019-05-15T05:31:20.699Z,50.08
2019-05-15T05:33:57.719Z,53.25
2019-05-15T05:36:29.201Z,51.95
2019-05-15T05:39:00.723Z,47.05
2019-05-15T05:41:32.323Z,51.18
2019-05-15T05:44:08.103Z,55.75
2019-05-15T05:46:39.904Z,50.92
2019-05-15T05:49:12.742Z,67.92
2019-05-15T05:51:47.939Z,64.82
2019-05-15T05:54:20.457Z,60.50
2019-05-15T05:56:52.035Z,63.08
2019-05-15T05:59:23.783Z,62.25
2019-05-15T06:01:58.937Z,47.38
2019-05-15T06:04:30.417Z,41.37
2019-05-15T06:07:11.124Z,34.18
2019-05-15T06:09:38.027Z,44.08
2019-05-15T06:12:10.690Z,47.35
2019-05-15T06:14:42.551Z,57.17
2019-05-15T06:17:14.191Z,53.98
2019-05-15T06:19:48.043Z,65.90
2019-05-15T06:22:20.032Z,63.83
2019-05-15T06:24:53.608Z,47.17
2019-05-15T06:27:27.935Z,41.80
2019-05-15T06:30:01.251Z,49.95
2019-05-15T06:32:33.934Z,54.50
2019-05-15T06:35:08.713Z,45.80
2019-05-15T06:37:40.422Z,24.63
2019-05-15T06:40:12.073Z,32.95
2019-05-15T06:42:43.869Z,33.60
2019-05-15T06:45:15.615Z,33.88
2019-05-15T06:47:48.254Z,27.22
2019-05-15T06:50:32.071Z,29.27
2019-05-15T06:53:10.421Z,33.10
2019-05-15T06:55:42.017Z,31.50
2019-05-15T06:58:14.672Z,33.10
2019-05-15T07:00:48.766Z,41.30
2019-05-15T07:03:25.775Z,39.92
2019-05-15T07:05:54.442Z,34.18
2019-05-15T07:08:28.665Z,33.70
2019-05-15T07:11:01.422Z,40.50
2019-05-15T07:13:51.239Z,37.88
2019-05-15T07:16:19.239Z,38.23
2019-05-15T07:18:50.981Z,41.90
2019-05-15T07:21:22.570Z,40.03
2019-05-15T07:23:58.685Z,39.35
2019-05-15T07:26:31.644Z,30.55
2019-05-15T07:29:15.214Z,24.90
2019-05-15T07:31:47.851Z,30.12
2019-05-15T07:34:21.675Z,18.70
2019-05-15T07:36:53.504Z,16.32
2019-05-15T07:39:28.697Z,19.57
2019-05-15T07:42:01.498Z,12.18
2019-05-15T07:47:10.840Z,16.52
2019-05-15T07:49:42.543Z,18.77
2019-05-15T07:52:14.199Z,16.40
2019-05-15T07:54:45.826Z,13.45
2019-05-15T07:57:20.710Z,17.98
2019-05-15T07:59:55.114Z,15.23
2019-05-15T08:02:28.444Z,15.13
2019-05-15T08:05:00.740Z,21.82
2019-05-15T08:07:34.027Z,19.98
2019-05-15T08:10:08.732Z,14.13
2019-05-15T08:12:45.219Z,14.30
2019-05-15T08:15:18.857Z,13.83
2019-05-15T08:18:04.148Z,20.20
2019-05-15T08:20:24.562Z,22.15
2019-05-15T08:22:58.272Z,25.08
2019-05-15T08:25:35.440Z,30.55
2019-05-15T08:28:12.791Z,26.62
2019-05-15T08:30:46.025Z,26.62
2019-05-15T08:33:17.955Z,24.92
2019-05-15T08:35:52.198Z,24.43
2019-05-15T08:38:23.910Z,22.93
2019-05-15T08:40:55.446Z,18.67
2019-05-15T08:43:31.624Z,16.40
2019-05-15T08:46:04.791Z,17.95
2019-05-15T08:48:39.169Z,20.92
2019-05-15T08:51:10.763Z,25.05
2019-05-15T08:53:48.810Z,23.98
2019-05-15T08:56:19.987Z,20.62
2019-05-15T08:58:51.842Z,18.20
2019-05-15T09:01:23.409Z,15.90
2019-05-15T09:03:55.151Z,14.03
2019-05-15T09:06:29.214Z,15.05
2019-05-15T09:09:01.768Z,12.70
2019-05-15T09:11:34.319Z,16.77
2019-05-15T09:14:11.694Z,12.82
2019-05-15T09:16:43.356Z,12.55
2019-05-15T09:19:15.002Z,18.45
2019-05-15T09:21:49.071Z,17.52
2019-05-15T09:24:20.293Z,15.30
2019-05-15T09:26:51.957Z,13.93
2019-05-15T09:29:23.868Z,12.55
2019-05-15T09:31:58.863Z,13.10
2019-05-15T09:34:46.654Z,10.85
2019-05-15T09:37:08.580Z,16.47
2019-05-15T09:39:40.280Z,12.55
2019-05-15T09:42:18.003Z,15.72
2019-05-15T09:44:51.328Z,14.28
2019-05-15T09:47:24.060Z,15.70
2019-05-15T09:49:58.930Z,16.77
2019-05-15T09:52:30.392Z,13.50
2019-05-15T09:55:02.385Z,13.10
2019-05-15T09:57:49.082Z,15.20
2019-05-15T10:00:29.290Z,17.82
2019-05-15T10:03:03.524Z,33.15
2019-05-15T10:08:08.919Z,28.42
2019-05-15T10:10:41.821Z,33.75
2019-05-15T10:13:15.142Z,38.73
2019-05-15T10:15:51.235Z,35.68
2019-05-15T10:18:23.126Z,32.70
2019-05-15T10:20:58.101Z,43.63
2019-05-15T10:23:30.002Z,36.88
2019-05-15T10:26:02.904Z,29.57
2019-05-15T10:28:38.849Z,29.45
2019-05-15T10:31:10.330Z,28.70
2019-05-15T10:33:46.037Z,28.20
2019-05-15T10:36:24.099Z,25.88
2019-05-15T10:38:56.954Z,28.73
2019-05-15T10:41:30.614Z,28.92
2019-05-15T10:44:04.698Z,26.12
2019-05-15T10:46:38.291Z,27.90
2019-05-15T10:49:11.090Z,24.93
2019-05-15T10:51:43.933Z,31.27
2019-05-15T10:54:19.241Z,26.23
2019-05-15T10:56:54.238Z,26.05
2019-05-15T10:59:28.919Z,25.08
2019-05-15T11:05:04.304Z,17.87
2019-05-15T11:07:44.777Z,14.15
2019-05-15T11:10:18.601Z,13.62
2019-05-15T11:12:52.413Z,16.50
2019-05-15T11:15:40.517Z,15.88
2019-05-15T11:18:14.394Z,16.93
2019-05-15T11:20:48.649Z,16.80
2019-05-15T11:23:22.539Z,12.53
2019-05-15T11:25:54.293Z,13.45
2019-05-15T11:28:31.705Z,12.90
2019-05-15T11:31:00.736Z,14.87
2019-05-15T11:33:32.656Z,13.60
2019-05-15T11:36:06.269Z,13.03
2019-05-15T11:38:39.258Z,14.13
2019-05-15T11:41:12.135Z,11.55
2019-05-15T11:43:52.407Z,14.10
2019-05-15T11:46:25.805Z,15.65
2019-05-15T11:49:01.510Z,17.05
2019-05-15T11:51:38.330Z,13.80
2019-05-15T11:54:13.624Z,12.68
2019-05-15T11:56:49.004Z,14.70
2019-05-15T11:59:22.492Z,12.75
2019-05-15T12:01:58.087Z,14.65
2019-05-15T12:04:34.226Z,14.03
2019-05-15T12:07:18.194Z,14.50
2019-05-15T12:09:50.685Z,18.12
2019-05-15T12:12:22.602Z,15.10
2019-05-15T12:14:55.737Z,14.90
2019-05-15T12:17:30.086Z,19.12
2019-05-15T12:20:06.581Z,15.30
2019-05-15T12:22:43.306Z,18.98
2019-05-15T12:25:18.729Z,14.60
2019-05-15T12:28:02.915Z,16.77
2019-05-15T12:30:49.234Z,19.15
2019-05-15T12:33:33.481Z,14.60
2019-05-15T12:36:10.203Z,17.57
2019-05-15T12:39:13.734Z,13.08
2019-05-15T13:03:18.202Z,16.57
2019-05-15T13:05:54.755Z,20.25
2019-05-15T13:08:29.074Z,14.07
2019-05-15T13:11:00.032Z,15.95
2019-05-15T13:13:33.299Z,20.60
2019-05-15T13:16:05.100Z,18.27
2019-05-15T13:18:38.651Z,16.35
2019-05-15T13:21:12.873Z,14.73
2019-05-15T13:26:23.820Z,17.05
2019-05-15T13:28:52.657Z,13.88
2019-05-15T13:31:28.402Z,15.63
2019-05-15T13:34:08.120Z,15.15
2019-05-15T13:37:09.170Z,17.07
2019-05-15T13:39:58.530Z,21.05
2019-05-15T13:42:42.057Z,14.05
2019-05-15T13:48:40.984Z,16.55
2019-05-15T13:51:12.833Z,16.73
2019-05-15T13:53:44.929Z,14.83
2019-05-15T13:56:18.208Z,14.25
2019-05-15T13:58:50.471Z,16.27
2019-05-15T14:01:28.624Z,14.60
2019-05-15T14:36:08.446Z,17.87
2019-05-15T14:40:28.563Z,16.57
2019-05-15T14:43:12.679Z,17.17
2019-05-15T14:45:49.380Z,18.50
2019-05-15T14:48:28.504Z,18.20
2019-05-15T14:51:01.114Z,16.67
2019-05-15T14:56:48.709Z,20.02
2019-05-15T14:59:21.277Z,17.02
2019-05-15T15:01:58.147Z,17.85
2019-05-15T15:04:39.245Z,21.07
2019-05-15T15:07:48.796Z,19.77
2019-05-15T15:11:17.800Z,17.50
2019-05-15T15:15:24.566Z,21.70
2019-05-15T15:17:29.721Z,27.07
2019-05-15T15:24:35.367Z,19.52
2019-05-15T15:27:13.232Z,19.75
2019-05-15T15:29:50.020Z,22.52
2019-05-15T15:32:28.389Z,23.55
2019-05-15T15:35:15.773Z,28.23
2019-05-15T15:37:51.516Z,23.40
2019-05-15T15:40:28.114Z,26.37
2019-05-15T15:43:00.315Z,21.40
2019-05-15T15:48:21.695Z,17.20
2019-05-15T15:50:58.585Z,18.00
2019-05-15T15:53:39.061Z,14.83
2019-05-15T15:56:19.804Z,15.83
2019-05-15T15:59:21.667Z,14.63
2019-05-15T16:01:53.999Z,13.08
2019-05-15T16:04:25.638Z,14.95
2019-05-15T16:06:59.989Z,13.05
2019-05-15T16:09:31.723Z,12.03
2019-05-15T16:12:03.582Z,12.20
2019-05-15T16:14:35.362Z,15.80
2019-05-15T16:17:08.629Z,15.28
2019-05-15T16:20:03.739Z,12.35
2019-05-15T16:22:48.714Z,13.93
2019-05-15T16:25:21.224Z,13.28
2019-05-15T16:27:57.796Z,14.38
2019-05-15T16:30:31.672Z,14.68
2019-05-15T16:33:10.742Z,14.23
2019-05-15T16:35:43.080Z,11.33
2019-05-15T16:38:19.256Z,13.13
2019-05-15T16:41:05.376Z,11.20
2019-05-15T16:46:20.352Z,18.87
2019-05-15T16:48:52.243Z,13.13
2019-05-15T16:51:24.104Z,18.92
2019-05-15T16:53:58.906Z,17.70
2019-05-15T16:56:36.383Z,13.72
2019-05-15T16:59:07.591Z,13.40
2019-05-15T17:01:41.192Z,16.12
2019-05-15T17:04:14.207Z,13.55
2019-05-15T17:06:49.406Z,17.75
2019-05-15T17:09:22.444Z,21.75
2019-05-15T17:11:55.269Z,17.70
2019-05-15T17:14:28.792Z,17.65
2019-05-15T17:17:00.714Z,19.25
2019-05-15T17:19:32.847Z,17.57
2019-05-15T17:22:09.250Z,15.43
2019-05-15T17:24:39.951Z,19.07
2019-05-15T17:27:12.461Z,14.23
2019-05-15T17:29:44.190Z,20.80
2019-05-15T17:32:18.417Z,19.52
2019-05-15T17:34:51.342Z,18.17
2019-05-15T17:37:24.661Z,15.98
2019-05-15T17:39:58.914Z,20.10
2019-05-15T17:42:31.150Z,24.85
2019-05-15T17:45:04.278Z,20.08
2019-05-15T17:47:38.841Z,19.37
2019-05-15T17:50:13.123Z,21.50
2019-05-15T17:52:45.149Z,17.15
2019-05-15T17:55:20.237Z,24.10
2019-05-15T17:57:56.657Z,21.82
2019-05-15T18:00:28.663Z,25.77
2019-05-15T18:03:00.419Z,20.52
2019-05-15T18:05:32.047Z,24.57
2019-05-15T18:08:04.106Z,25.57
2019-05-15T18:10:35.982Z,20.37
2019-05-15T18:13:09.292Z,22.07
2019-05-15T18:15:42.128Z,27.30
2019-05-15T18:18:14.178Z,28.10
2019-05-15T18:20:51.350Z,29.77
2019-05-15T18:23:23.796Z,33.28
2019-05-15T18:25:58.208Z,24.35
2019-05-15T18:28:29.129Z,28.35
2019-05-15T18:31:01.024Z,30.20
2019-05-15T18:33:32.605Z,32.60
2019-05-15T18:36:04.175Z,33.73
2019-05-15T18:38:38.789Z,26.33
2019-05-15T18:41:09.940Z,25.50
2019-05-15T18:43:41.521Z,26.27
2019-05-15T18:46:13.059Z,30.48
2019-05-15T18:48:44.747Z,31.07
2019-05-15T18:51:16.372Z,28.20
2019-05-15T18:53:48.256Z,30.40
2019-05-15T18:56:19.891Z,35.70
2019-05-15T18:58:51.489Z,28.15
2019-05-15T19:01:23.082Z,30.57
2019-05-15T19:04:01.282Z,30.27
2019-05-15T19:06:32.943Z,29.12
2019-05-15T19:09:08.159Z,28.62
2019-05-15T19:11:39.985Z,40.35
2019-05-15T19:14:12.591Z,29.23
2019-05-15T19:16:44.238Z,37.15
2019-05-15T19:19:15.922Z,32.03
2019-05-15T19:21:53.096Z,35.08
2019-05-15T19:24:24.732Z,33.90
2019-05-15T19:26:58.508Z,33.30
2019-05-15T19:29:29.652Z,33.10
2019-05-15T19:32:01.208Z,40.30
2019-05-15T19:34:32.813Z,30.57
2019-05-15T19:37:04.502Z,30.60
2019-05-15T19:39:38.485Z,32.63
2019-05-15T19:42:09.463Z,30.20
2019-05-15T19:44:41.257Z,36.48
2019-05-15T19:47:12.827Z,30.57
2019-05-15T19:49:44.389Z,29.92
2019-05-15T19:52:23.036Z,38.75
2019-05-15T19:54:54.621Z,41.37
2019-05-15T19:57:28.018Z,32.23
2019-05-15T19:59:59.813Z,38.53
2019-05-15T20:02:31.367Z,31.80
2019-05-15T20:05:05.071Z,31.23
2019-05-15T20:07:38.988Z,31.73
2019-05-15T20:10:11.667Z,33.63
2019-05-15T20:12:43.618Z,30.05
2019-05-15T20:15:15.581Z,36.58
2019-05-15T20:17:48.202Z,26.85
2019-05-15T20:20:19.938Z,32.83
2019-05-15T20:22:51.802Z,35.88
2019-05-15T20:25:23.473Z,29.95
2019-05-15T20:27:54.949Z,33.70
2019-05-15T20:30:28.566Z,29.18
2019-05-15T20:33:00.166Z,31.77
2019-05-15T20:35:33.894Z,30.40
2019-05-15T20:38:09.060Z,35.63
2019-05-15T20:40:40.622Z,30.52
2019-05-15T20:43:15.877Z,39.20
2019-05-15T20:45:48.385Z,30.77
2019-05-15T20:48:25.189Z,32.08
2019-05-15T20:50:58.918Z,31.10
2019-05-15T20:53:34.457Z,31.10
2019-05-15T20:56:08.192Z,33.08
2019-05-15T20:58:39.350Z,35.75
2019-05-15T21:01:10.936Z,28.52
2019-05-15T21:03:42.473Z,34.18
2019-05-15T21:06:14.056Z,37.85
2019-05-15T21:08:48.584Z,29.90
2019-05-15T21:11:23.251Z,33.23
2019-05-15T21:13:54.821Z,31.70
2019-05-15T21:16:27.982Z,35.95
2019-05-15T21:19:00.303Z,34.10
2019-05-15T21:21:34.128Z,34.70
2019-05-15T21:24:05.693Z,33.05
2019-05-15T21:26:38.234Z,32.50
2019-05-15T21:29:09.857Z,31.20
2019-05-15T21:31:49.030Z,31.48
2019-05-15T21:34:36.688Z,25.77
2019-05-15T21:36:54.355Z,34.35
2019-05-15T21:39:29.879Z,30.43
2019-05-15T21:42:03.047Z,36.20
2019-05-15T21:44:34.692Z,29.72
2019-05-15T21:47:08.088Z,27.55
2019-05-15T21:49:42.573Z,34.98
2019-05-15T21:54:50.970Z,31.60
2019-05-15T21:57:35.686Z,30.72
2019-05-15T22:00:00.747Z,30.32
2019-05-15T22:02:34.556Z,28.17
2019-05-15T22:05:08.644Z,32.15
2019-05-15T22:07:40.370Z,32.15
2019-05-15T22:10:20.050Z,28.98
2019-05-15T22:12:53.335Z,29.45
2019-05-15T22:15:24.996Z,29.23
2019-05-15T22:17:56.688Z,31.50
2019-05-15T22:20:30.505Z,31.48
2019-05-15T22:23:01.665Z,31.85
2019-05-15T22:25:33.236Z,29.70
2019-05-15T22:28:05.193Z,44.30
2019-05-15T22:30:38.964Z,35.75
2019-05-15T22:33:10.923Z,35.65
2019-05-15T22:35:44.043Z,35.60
2019-05-15T22:38:17.955Z,33.35
2019-05-15T22:40:48.909Z,31.77
2019-05-15T22:43:23.852Z,32.93
2019-05-15T22:45:55.395Z,31.02
2019-05-15T22:48:28.681Z,29.48
2019-05-15T22:51:00.484Z,33.58
2019-05-15T22:53:32.288Z,38.73
2019-05-15T22:56:03.909Z,36.95
2019-05-15T22:58:38.655Z,32.05
2019-05-15T23:01:10.505Z,41.95
2019-05-15T23:03:42.170Z,35.83
2019-05-15T23:06:13.768Z,33.67
2019-05-15T23:08:45.377Z,31.97
2019-05-15T23:11:18.224Z,39.85
2019-05-15T23:13:51.222Z,38.83
2019-05-15T23:16:28.253Z,39.60
2019-05-15T23:18:59.599Z,40.50
2019-05-15T23:21:31.156Z,28.75
2019-05-15T23:24:02.737Z,38.53
2019-05-15T23:26:34.262Z,32.08
2019-05-15T23:29:08.065Z,26.60
2019-05-15T23:31:45.819Z,27.52
2019-05-15T23:34:18.696Z,22.32
2019-05-15T23:36:50.466Z,24.20
2019-05-15T23:39:23.026Z,25.00
2019-05-15T23:41:58.459Z,27.77
2019-05-15T23:44:31.121Z,24.07
2019-05-15T23:47:02.695Z,25.70
2019-05-15T23:49:34.248Z,29.20
2019-05-15T23:52:05.897Z,28.55
2019-05-15T23:54:38.534Z,21.27
2019-05-15T23:57:10.287Z,22.05
2019-05-15T23:59:47.633Z,25.08
